Terminal Aerodrome Forecast
Issued by NWS

Home | Current Version | Previous Version | Text Only | Print | Product List | Glossary On
Versions: 1 2 3 4 5 6 7 8 9 10 11 12 13 14 15 16
000
FTUS44 KLZK 271400 AAB
TAFHRO
TAF AMD
KHRO 271420Z 2714/2812 13003KT P6SM SKC
     FM271700 09008KT P6SM SCT050
     FM280000 12004KT P6SM SKC=

USA.gov is the U.S. government's official web portal to all federal, state and local government web resources and services.